Hauptseite
METAR-TAF:

METAR-TAF

Flughäfen :

Militärflugplatz Deelen

Arnheim, Niederlande

Breite: 52-04N, Länge: 005-53E, Höhe: 48 m

Beobachtung

Neuester Wetterbericht von vor 35 Minuten, um 01:25 UTC
Wind 4 kt aus West/Südwest, variierte zwischen Süd/Südwest und West/Nordwest
Temperatur 7°C
Luftfeuchtigkeit 93%
Luftdruck 1035 hPa
Sichtweite: 2300 m
Durchbrochene Bewölkung in der Höhe von 200 ft
Leicht bewölkt in der Höhe von 1500 ft, Kumulonimbus.
Sprühregen leicht

METAR: EHDL 050125Z AUTO 25004KT 210V290 2300 -DZ BKN002 FEW015CB 07/06 Q1035 AMB

Zeit: 03:00 (02:00 UTC)


TAF: fehlend

Wetterbeobachtungen und Prognosen von mehr als 4000 Flughäfen (METAR und TAF Bericht).

Die verfügbaren Stationen werden durch gelbe und rote Markierungen auf der Karte dargestellt.

Führen Sie die Maus auf sie, um den Namen der Station zu sehen.

Darauf klicken, um die Beobachtung von Wetterbeobachtungen und Prognosen zu sehen.

Um die Karte zu ändern : klicken Sie auf den grünen Tasten mit einem schwarzen Kreuz Zum Vergrößern, auf den grünen Button mit einem Gedankenstrich zu verkleinern, oder auf die grünen Pfeile für benachbarte Karten.


METAR-TAF: